sensor_id;sensor_type;location;lat;lon;timestamp;pressure;altitude;pressure_sealevel;temperature;humidity
17362;BME280;8798;51.938;4.348;2023-11-19T00:00:19;101280.63;;;14.42;94.50
17362;BME280;8798;51.938;4.348;2023-11-19T00:02:52;101270.78;;;14.41;94.54
17362;BME280;8798;51.938;4.348;2023-11-19T00:05:31;101258.31;;;14.40;94.62
17362;BME280;8798;51.938;4.348;2023-11-19T00:07:59;101251.19;;;14.39;94.40
17362;BME280;8798;51.938;4.348;2023-11-19T00:10:39;101244.09;;;14.38;94.44
17362;BME280;8798;51.938;4.348;2023-11-19T00:13:10;101239.72;;;14.37;94.63
17362;BME280;8798;51.938;4.348;2023-11-19T00:15:40;101228.91;;;14.37;94.58
17362;BME280;8798;51.938;4.348;2023-11-19T00:18:09;101223.66;;;14.35;94.25
17362;BME280;8798;51.938;4.348;2023-11-19T00:20:40;101213.88;;;14.34;94.48
17362;BME280;8798;51.938;4.348;2023-11-19T00:23:19;101200.53;;;14.33;94.56
17362;BME280;8798;51.938;4.348;2023-11-19T00:25:50;101197.13;;;14.31;94.69
17362;BME280;8798;51.938;4.348;2023-11-19T00:28:20;101182.78;;;14.30;94.47
17362;BME280;8798;51.938;4.348;2023-11-19T00:30:52;101168.59;;;14.28;94.54
17362;BME280;8798;51.938;4.348;2023-11-19T00:33:29;101156.25;;;14.26;94.50
17362;BME280;8798;51.938;4.348;2023-11-19T00:36:01;101139.38;;;14.24;94.40
17362;BME280;8798;51.938;4.348;2023-11-19T00:38:31;101148.16;;;14.26;94.48
17362;BME280;8798;51.938;4.348;2023-11-19T00:41:09;101148.16;;;14.26;94.43
17362;BME280;8798;51.938;4.348;2023-11-19T00:43:41;101138.38;;;14.25;94.44
17362;BME280;8798;51.938;4.348;2023-11-19T00:46:18;101127.72;;;14.23;94.48
17362;BME280;8798;51.938;4.348;2023-11-19T00:48:48;101118.94;;;14.21;94.54
17362;BME280;8798;51.938;4.348;2023-11-19T00:51:20;101114.56;;;14.20;94.46
17362;BME280;8798;51.938;4.348;2023-11-19T00:53:51;101092.25;;;14.18;94.35
17362;BME280;8798;51.938;4.348;2023-11-19T00:56:29;101072.66;;;14.16;94.40
17362;BME280;8798;51.938;4.348;2023-11-19T00:59:01;101067.44;;;14.14;94.55
17362;BME280;8798;51.938;4.348;2023-11-19T01:01:39;101054.25;;;14.11;94.51
17362;BME280;8798;51.938;4.348;2023-11-19T01:04:09;101041.94;;;14.09;94.49
17362;BME280;8798;51.938;4.348;2023-11-19T01:06:41;101031.31;;;14.07;94.34
17362;BME280;8798;51.938;4.348;2023-11-19T01:09:19;101008.34;;;14.03;94.57
17362;BME280;8798;51.938;4.348;2023-11-19T01:11:49;101006.84;;;14.01;94.54
17362;BME280;8798;51.938;4.348;2023-11-19T01:14:20;100986.25;;;14.00;94.55
17362;BME280;8798;51.938;4.348;2023-11-19T01:16:59;100969.38;;;13.97;94.52
17362;BME280;8798;51.938;4.348;2023-11-19T01:19:30;100969.69;;;13.94;94.47
17362;BME280;8798;51.938;4.348;2023-11-19T01:22:01;100951.97;;;13.92;94.44
17362;BME280;8798;51.938;4.348;2023-11-19T01:24:38;100937.97;;;13.88;94.61
17362;BME280;8798;51.938;4.348;2023-11-19T01:27:09;100925.66;;;13.86;94.48
17362;BME280;8798;51.938;4.348;2023-11-19T01:29:52;100897.31;;;13.82;94.44
17362;BME280;8798;51.938;4.348;2023-11-19T01:32:38;100881.63;;;13.77;94.40
17362;BME280;8798;51.938;4.348;2023-11-19T01:35:09;100868.31;;;13.75;94.55
17362;BME280;8798;51.938;4.348;2023-11-19T01:37:41;100860.56;;;13.72;94.35
17362;BME280;8798;51.938;4.348;2023-11-19T01:40:20;100845.53;;;13.70;94.63
17362;BME280;8798;51.938;4.348;2023-11-19T01:42:49;100832.38;;;13.67;94.70
17362;BME280;8798;51.938;4.348;2023-11-19T01:45:24;100820.06;;;13.64;94.46
17362;BME280;8798;51.938;4.348;2023-11-19T01:48:02;100817.56;;;13.63;94.51
17362;BME280;8798;51.938;4.348;2023-11-19T01:50:39;100798.16;;;13.59;94.68
17362;BME280;8798;51.938;4.348;2023-11-19T01:53:12;100791.22;;;13.57;94.47
17362;BME280;8798;51.938;4.348;2023-11-19T01:55:50;100792.41;;;13.54;94.48
17362;BME280;8798;51.938;4.348;2023-11-19T01:58:30;100773.06;;;13.50;94.70
17362;BME280;8798;51.938;4.348;2023-11-19T02:01:01;100757.03;;;13.49;94.62
17362;BME280;8798;51.938;4.348;2023-11-19T02:03:38;100745.75;;;13.45;94.69
17362;BME280;8798;51.938;4.348;2023-11-19T02:06:19;100734.44;;;13.42;94.52
17362;BME280;8798;51.938;4.348;2023-11-19T02:08:51;100716.91;;;13.38;94.31
17362;BME280;8798;51.938;4.348;2023-11-19T02:11:32;100709.00;;;13.36;94.25
17362;BME280;8798;51.938;4.348;2023-11-19T02:14:09;100710.19;;;13.33;94.16
17362;BME280;8798;51.938;4.348;2023-11-19T02:16:40;100702.25;;;13.32;94.54
17362;BME280;8798;51.938;4.348;2023-11-19T02:19:09;100687.25;;;13.29;94.64
17362;BME280;8798;51.938;4.348;2023-11-19T02:21:42;100683.06;;;13.27;94.44
17362;BME280;8798;51.938;4.348;2023-11-19T02:24:22;100674.44;;;13.23;94.73
17362;BME280;8798;51.938;4.348;2023-11-19T02:27:20;100661.94;;;13.22;94.19
17362;BME280;8798;51.938;4.348;2023-11-19T02:30:20;100656.91;;;13.19;94.67
17362;BME280;8798;51.938;4.348;2023-11-19T02:32:59;100649.19;;;13.16;94.27
17362;BME280;8798;51.938;4.348;2023-11-19T02:35:39;100636.03;;;13.13;94.45
17362;BME280;8798;51.938;4.348;2023-11-19T02:38:08;100627.28;;;13.11;94.22
17362;BME280;8798;51.938;4.348;2023-11-19T02:40:39;100636.22;;;13.11;94.50
17362;BME280;8798;51.938;4.348;2023-11-19T02:43:22;100639.75;;;13.12;94.32
17362;BME280;8798;51.938;4.348;2023-11-19T02:46:10;100637.41;;;13.09;94.44
17362;BME280;8798;51.938;4.348;2023-11-19T02:48:42;100626.97;;;13.06;94.31
17362;BME280;8798;51.938;4.348;2023-11-19T02:51:19;100620.72;;;13.05;94.37
17362;BME280;8798;51.938;4.348;2023-11-19T02:53:50;100611.09;;;13.03;94.40
17362;BME280;8798;51.938;4.348;2023-11-19T02:56:19;100620.22;;;13.02;94.33
17362;BME280;8798;51.938;4.348;2023-11-19T02:58:59;100610.47;;;13.01;94.71
17362;BME280;8798;51.938;4.348;2023-11-19T03:01:40;100604.41;;;12.99;94.15
17362;BME280;8798;51.938;4.348;2023-11-19T03:04:19;100608.97;;;12.98;94.65
17362;BME280;8798;51.938;4.348;2023-11-19T03:06:50;100606.44;;;12.97;94.62
17362;BME280;8798;51.938;4.348;2023-11-19T03:09:33;100605.59;;;12.96;94.54
17362;BME280;8798;51.938;4.348;2023-11-19T03:12:10;100603.06;;;12.95;94.26
17362;BME280;8798;51.938;4.348;2023-11-19T03:14:40;100605.59;;;12.96;94.30
17362;BME280;8798;51.938;4.348;2023-11-19T03:17:21;100601.56;;;12.92;94.35
17362;BME280;8798;51.938;4.348;2023-11-19T03:19:59;100597.19;;;12.91;94.35
17362;BME280;8798;51.938;4.348;2023-11-19T03:22:30;100596.50;;;12.89;94.23
17362;BME280;8798;51.938;4.348;2023-11-19T03:25:00;100589.41;;;12.88;94.69
17362;BME280;8798;51.938;4.348;2023-11-19T03:27:30;100586.09;;;12.86;94.55
17362;BME280;8798;51.938;4.348;2023-11-19T03:30:00;100578.16;;;12.84;94.76
17362;BME280;8798;51.938;4.348;2023-11-19T03:32:31;100581.88;;;12.83;94.31
17362;BME280;8798;51.938;4.348;2023-11-19T03:35:09;100573.94;;;12.82;94.11
17362;BME280;8798;51.938;4.348;2023-11-19T03:37:40;100584.72;;;12.82;94.32
17362;BME280;8798;51.938;4.348;2023-11-19T03:40:13;100576.66;;;12.82;94.17
17362;BME280;8798;51.938;4.348;2023-11-19T03:42:59;100578.66;;;12.80;94.09
17362;BME280;8798;51.938;4.348;2023-11-19T03:45:30;100569.75;;;12.79;94.61
17362;BME280;8798;51.938;4.348;2023-11-19T03:48:00;100574.47;;;12.77;94.49
17362;BME280;8798;51.938;4.348;2023-11-19T03:50:30;100575.50;;;12.76;94.49
17362;BME280;8798;51.938;4.348;2023-11-19T03:53:03;100564.88;;;12.75;94.65
17362;BME280;8798;51.938;4.348;2023-11-19T03:55:40;100560.66;;;12.72;94.14
17362;BME280;8798;51.938;4.348;2023-11-19T03:58:10;100561.69;;;12.71;94.63
17362;BME280;8798;51.938;4.348;2023-11-19T04:00:40;100565.38;;;12.70;94.23
17362;BME280;8798;51.938;4.348;2023-11-19T04:03:12;100564.56;;;12.69;94.61
17362;BME280;8798;51.938;4.348;2023-11-19T04:05:50;100562.03;;;12.68;94.27
17362;BME280;8798;51.938;4.348;2023-11-19T04:08:21;100567.41;;;12.68;94.13
17362;BME280;8798;51.938;4.348;2023-11-19T04:10:53;100569.28;;;12.67;94.47
17362;BME280;8798;51.938;4.348;2023-11-19T04:13:30;100570.09;;;12.68;94.27
17362;BME280;8798;51.938;4.348;2023-11-19T04:16:00;100576.34;;;12.68;94.27
17362;BME280;8798;51.938;4.348;2023-11-19T04:18:33;100585.28;;;12.69;94.63
17362;BME280;8798;51.938;4.348;2023-11-19T04:21:12;100594.19;;;12.69;94.56
17362;BME280;8798;51.938;4.348;2023-11-19T04:23:49;100587.97;;;12.69;94.06
17362;BME280;8798;51.938;4.348;2023-11-19T04:26:18;100591.50;;;12.69;94.46
17362;BME280;8798;51.938;4.348;2023-11-19T04:28:50;100603.13;;;12.70;94.11
17362;BME280;8798;51.938;4.348;2023-11-19T04:31:20;100606.66;;;12.70;94.64
17362;BME280;8798;51.938;4.348;2023-11-19T04:33:51;100606.66;;;12.70;94.02
17362;BME280;8798;51.938;4.348;2023-11-19T04:36:30;100613.75;;;12.72;94.26
17362;BME280;8798;51.938;4.348;2023-11-19T04:39:00;100599.75;;;12.68;94.68
17362;BME280;8798;51.938;4.348;2023-11-19T04:41:30;100609.69;;;12.67;94.47
17362;BME280;8798;51.938;4.348;2023-11-19T04:44:00;100598.25;;;12.65;94.19
17362;BME280;8798;51.938;4.348;2023-11-19T04:46:30;100597.41;;;12.65;94.42
17362;BME280;8798;51.938;4.348;2023-11-19T04:49:01;100594.03;;;12.63;94.44
17362;BME280;8798;51.938;4.348;2023-11-19T04:51:40;100584.28;;;12.62;94.23
17362;BME280;8798;51.938;4.348;2023-11-19T04:54:09;100594.22;;;12.61;94.54
17362;BME280;8798;51.938;4.348;2023-11-19T04:56:40;100591.69;;;12.60;94.34
17362;BME280;8798;51.938;4.348;2023-11-19T04:59:10;100585.63;;;12.58;94.65
17362;BME280;8798;51.938;4.348;2023-11-19T05:01:40;100578.72;;;12.55;94.62
17362;BME280;8798;51.938;4.348;2023-11-19T05:04:11;100588.66;;;12.55;94.47
17362;BME280;8798;51.938;4.348;2023-11-19T05:06:40;100587.66;;;12.56;94.53
17362;BME280;8798;51.938;4.348;2023-11-19T05:09:10;100598.44;;;12.56;94.32
17362;BME280;8798;51.938;4.348;2023-11-19T05:11:50;100599.28;;;12.56;93.99
17362;BME280;8798;51.938;4.348;2023-11-19T05:14:20;100603.81;;;12.56;94.45
17362;BME280;8798;51.938;4.348;2023-11-19T05:17:02;100599.44;;;12.55;94.21
17362;BME280;8798;51.938;4.348;2023-11-19T05:19:42;100609.19;;;12.56;94.33
17362;BME280;8798;51.938;4.348;2023-11-19T05:22:31;100599.44;;;12.55;94.28
17362;BME280;8798;51.938;4.348;2023-11-19T05:25:22;100606.69;;;12.54;94.55
17362;BME280;8798;51.938;4.348;2023-11-19T05:28:00;100598.78;;;12.53;94.14
17362;BME280;8798;51.938;4.348;2023-11-19T05:30:31;100604.16;;;12.53;93.93
17362;BME280;8798;51.938;4.348;2023-11-19T05:33:00;100618.47;;;12.53;94.17
17362;BME280;8798;51.938;4.348;2023-11-19T05:35:31;100619.16;;;12.55;94.24
17362;BME280;8798;51.938;4.348;2023-11-19T05:38:02;100625.56;;;12.54;94.75
17362;BME280;8798;51.938;4.348;2023-11-19T05:40:40;100616.81;;;12.52;94.76
17362;BME280;8798;51.938;4.348;2023-11-19T05:43:10;100614.09;;;12.52;94.18
17362;BME280;8798;51.938;4.348;2023-11-19T05:45:40;100620.47;;;12.51;94.13
17362;BME280;8798;51.938;4.348;2023-11-19T05:48:10;100618.97;;;12.48;94.25
17362;BME280;8798;51.938;4.348;2023-11-19T05:50:42;100605.69;;;12.47;94.46
17362;BME280;8798;51.938;4.348;2023-11-19T05:53:21;100601.31;;;12.46;94.12
17362;BME280;8798;51.938;4.348;2023-11-19T05:55:51;100608.53;;;12.45;94.14
17362;BME280;8798;51.938;4.348;2023-11-19T05:58:40;100603.34;;;12.44;94.71
17362;BME280;8798;51.938;4.348;2023-11-19T06:01:23;100610.56;;;12.43;94.46
17362;BME280;8798;51.938;4.348;2023-11-19T06:04:00;100608.91;;;12.42;94.42
17362;BME280;8798;51.938;4.348;2023-11-19T06:06:32;100601.84;;;12.41;94.31
17362;BME280;8798;51.938;4.348;2023-11-19T06:09:10;100592.25;;;12.39;93.88
17362;BME280;8798;51.938;4.348;2023-11-19T06:11:49;100601.31;;;12.38;94.47
17362;BME280;8798;51.938;4.348;2023-11-19T06:14:20;100602.16;;;12.38;94.26
17362;BME280;8798;51.938;4.348;2023-11-19T06:16:50;100600.47;;;12.37;94.34
17362;BME280;8798;51.938;4.348;2023-11-19T06:19:19;100601.47;;;12.36;93.74
17362;BME280;8798;51.938;4.348;2023-11-19T06:21:50;100605.03;;;12.37;94.43
17362;BME280;8798;51.938;4.348;2023-11-19T06:24:20;100606.72;;;12.38;94.59
17362;BME280;8798;51.938;4.348;2023-11-19T06:26:50;100610.41;;;12.37;93.86
17362;BME280;8798;51.938;4.348;2023-11-19T06:29:18;100601.47;;;12.36;94.07
17362;BME280;8798;51.938;4.348;2023-11-19T06:31:46;100622.03;;;12.37;94.26
17362;BME280;8798;51.938;4.348;2023-11-19T06:34:20;100622.03;;;12.37;94.34
17362;BME280;8798;51.938;4.348;2023-11-19T06:36:50;100626.59;;;12.37;94.07
17362;BME280;8798;51.938;4.348;2023-11-19T06:39:20;100630.13;;;12.37;94.38
17362;BME280;8798;51.938;4.348;2023-11-19T06:41:53;100630.13;;;12.37;93.88
17362;BME280;8798;51.938;4.348;2023-11-19T06:44:30;100629.28;;;12.37;94.02
17362;BME280;8798;51.938;4.348;2023-11-19T06:47:01;100639.88;;;12.38;94.29
17362;BME280;8798;51.938;4.348;2023-11-19T06:49:29;100648.81;;;12.39;93.95
17362;BME280;8798;51.938;4.348;2023-11-19T06:52:00;100656.72;;;12.40;94.08
17362;BME280;8798;51.938;4.348;2023-11-19T06:54:32;100670.69;;;12.44;94.64
17362;BME280;8798;51.938;4.348;2023-11-19T06:57:00;100679.44;;;12.46;94.22
17362;BME280;8798;51.938;4.348;2023-11-19T06:59:30;100699.81;;;12.48;94.24
17362;BME280;8798;51.938;4.348;2023-11-19T07:02:00;100721.88;;;12.52;94.05
17362;BME280;8798;51.938;4.348;2023-11-19T07:04:31;100746.47;;;12.57;94.08
17362;BME280;8798;51.938;4.348;2023-11-19T07:07:02;100763.81;;;12.63;94.00
17362;BME280;8798;51.938;4.348;2023-11-19T07:09:35;100791.97;;;12.68;93.47
17362;BME280;8798;51.938;4.348;2023-11-19T07:12:06;100805.09;;;12.72;93.99
17362;BME280;8798;51.938;4.348;2023-11-19T07:14:41;100830.53;;;12.77;94.22
17362;BME280;8798;51.938;4.348;2023-11-19T07:17:10;100840.31;;;12.78;94.04
17362;BME280;8798;51.938;4.348;2023-11-19T07:19:40;100834.91;;;12.78;94.49
17362;BME280;8798;51.938;4.348;2023-11-19T07:22:12;100831.38;;;12.78;94.05
17362;BME280;8798;51.938;4.348;2023-11-19T07:25:00;100833.22;;;12.77;93.95
17362;BME280;8798;51.938;4.348;2023-11-19T07:27:31;100819.06;;;12.75;93.91
17362;BME280;8798;51.938;4.348;2023-11-19T07:30:00;100824.47;;;12.75;94.50
17362;BME280;8798;51.938;4.348;2023-11-19T07:32:29;100826.16;;;12.76;94.07
17362;BME280;8798;51.938;4.348;2023-11-19T07:35:01;100838.63;;;12.77;94.27
17362;BME280;8798;51.938;4.348;2023-11-19T07:37:30;100839.47;;;12.78;93.94
17362;BME280;8798;51.938;4.348;2023-11-19T07:40:02;100838.47;;;12.79;94.38
17362;BME280;8798;51.938;4.348;2023-11-19T07:42:40;100830.53;;;12.77;94.40
17362;BME280;8798;51.938;4.348;2023-11-19T07:45:19;100836.78;;;12.78;94.22
17362;BME280;8798;51.938;4.348;2023-11-19T07:47:51;100844.69;;;12.79;94.38
17362;BME280;8798;51.938;4.348;2023-11-19T07:50:22;100841.16;;;12.79;94.00
17362;BME280;8798;51.938;4.348;2023-11-19T07:53:02;100842.00;;;12.79;94.08
17362;BME280;8798;51.938;4.348;2023-11-19T07:55:40;100845.53;;;12.80;94.05
17362;BME280;8798;51.938;4.348;2023-11-19T07:58:11;100842.00;;;12.79;94.24
17362;BME280;8798;51.938;4.348;2023-11-19T08:00:41;100848.22;;;12.80;94.00
17362;BME280;8798;51.938;4.348;2023-11-19T08:03:12;100852.44;;;12.82;94.24
17362;BME280;8798;51.938;4.348;2023-11-19T08:05:49;100867.63;;;12.83;94.25
17362;BME280;8798;51.938;4.348;2023-11-19T08:08:22;100865.59;;;12.85;94.00
17362;BME280;8798;51.938;4.348;2023-11-19T08:11:00;100888.69;;;12.88;93.94
17362;BME280;8798;51.938;4.348;2023-11-19T08:13:31;100894.94;;;12.88;93.98
17362;BME280;8798;51.938;4.348;2023-11-19T08:16:01;100901.66;;;12.93;94.25
17362;BME280;8798;51.938;4.348;2023-11-19T08:18:32;100907.06;;;12.93;94.35
17362;BME280;8798;51.938;4.348;2023-11-19T08:21:09;100918.53;;;12.95;94.10
17362;BME280;8798;51.938;4.348;2023-11-19T08:23:41;100934.06;;;13.01;94.18
17362;BME280;8798;51.938;4.348;2023-11-19T08:28:49;100957.66;;;13.07;94.37
17362;BME280;8798;51.938;4.348;2023-11-19T08:31:19;100974.38;;;13.10;94.46
17362;BME280;8798;51.938;4.348;2023-11-19T08:33:47;100995.41;;;13.15;94.13
17362;BME280;8798;51.938;4.348;2023-11-19T08:36:15;101005.03;;;13.18;94.17
17362;BME280;8798;51.938;4.348;2023-11-19T08:38:49;101019.91;;;13.22;93.85
17362;BME280;8798;51.938;4.348;2023-11-19T08:41:21;101046.25;;;13.28;93.86
17362;BME280;8798;51.938;4.348;2023-11-19T08:43:51;101061.94;;;13.32;93.74
17362;BME280;8798;51.938;4.348;2023-11-19T08:46:23;101086.41;;;13.39;94.30
17362;BME280;8798;51.938;4.348;2023-11-19T08:48:55;101111.03;;;13.44;94.00
17362;BME280;8798;51.938;4.348;2023-11-19T08:51:31;101114.28;;;13.48;94.05
17362;BME280;8798;51.938;4.348;2023-11-19T08:54:01;101127.44;;;13.51;94.11
17362;BME280;8798;51.938;4.348;2023-11-19T08:56:30;101136.03;;;13.54;94.10
17362;BME280;8798;51.938;4.348;2023-11-19T08:59:12;101139.44;;;13.57;94.00
17362;BME280;8798;51.938;4.348;2023-11-19T09:01:51;101152.59;;;13.60;93.94
17362;BME280;8798;51.938;4.348;2023-11-19T09:04:21;101149.88;;;13.60;94.10
17362;BME280;8798;51.938;4.348;2023-11-19T09:06:50;101146.34;;;13.59;94.16
17362;BME280;8798;51.938;4.348;2023-11-19T09:09:22;101135.72;;;13.58;94.08
17362;BME280;8798;51.938;4.348;2023-11-19T09:11:59;101137.41;;;13.59;94.04
17362;BME280;8798;51.938;4.348;2023-11-19T09:14:29;101137.06;;;13.62;93.79
17362;BME280;8798;51.938;4.348;2023-11-19T09:17:01;101151.94;;;13.66;94.20
17362;BME280;8798;51.938;4.348;2023-11-19T09:19:32;101172.38;;;13.68;93.94
17362;BME280;8798;51.938;4.348;2023-11-19T09:22:09;101156.16;;;13.68;93.96
17362;BME280;8798;51.938;4.348;2023-11-19T09:24:42;101156.16;;;13.68;94.05
17362;BME280;8798;51.938;4.348;2023-11-19T09:27:19;101149.94;;;13.68;94.08
17362;BME280;8798;51.938;4.348;2023-11-19T09:29:51;101136.59;;;13.66;93.82
17362;BME280;8798;51.938;4.348;2023-11-19T09:32:25;101133.88;;;13.66;94.06
17362;BME280;8798;51.938;4.348;2023-11-19T09:34:53;101127.47;;;13.67;93.85
17362;BME280;8798;51.938;4.348;2023-11-19T09:37:21;101140.81;;;13.69;93.61
17362;BME280;8798;51.938;4.348;2023-11-19T09:39:50;101148.41;;;13.73;94.27
17362;BME280;8798;51.938;4.348;2023-11-19T09:42:18;101163.44;;;13.76;93.88
17362;BME280;8798;51.938;4.348;2023-11-19T09:44:47;101159.72;;;13.77;93.79
17362;BME280;8798;51.938;4.348;2023-11-19T09:47:16;101167.50;;;13.80;93.77
17362;BME280;8798;51.938;4.348;2023-11-19T09:49:44;101186.75;;;13.85;93.80
17362;BME280;8798;51.938;4.348;2023-11-19T09:52:12;101195.56;;;13.87;94.00
17362;BME280;8798;51.938;4.348;2023-11-19T09:54:40;101205.00;;;13.91;93.83
17362;BME280;8798;51.938;4.348;2023-11-19T09:57:11;101227.78;;;13.97;93.84
17362;BME280;8798;51.938;4.348;2023-11-19T09:59:40;101232.88;;;14.00;93.63
17362;BME280;8798;51.938;4.348;2023-11-19T10:02:09;101220.38;;;13.99;93.92
17362;BME280;8798;51.938;4.348;2023-11-19T10:04:38;101204.50;;;13.96;93.67
17362;BME280;8798;51.938;4.348;2023-11-19T10:07:07;101191.34;;;13.93;93.84
17362;BME280;8798;51.938;4.348;2023-11-19T10:09:35;101178.81;;;13.92;93.90
17362;BME280;8798;51.938;4.348;2023-11-19T10:12:04;101175.13;;;13.93;93.91
17362;BME280;8798;51.938;4.348;2023-11-19T10:14:35;101179.50;;;13.94;93.94
17362;BME280;8798;51.938;4.348;2023-11-19T10:17:07;101184.75;;;13.95;93.75
17362;BME280;8798;51.938;4.348;2023-11-19T10:19:35;101192.53;;;13.98;93.86
17362;BME280;8798;51.938;4.348;2023-11-19T10:22:04;101213.66;;;14.03;93.68
17362;BME280;8798;51.938;4.348;2023-11-19T10:24:33;101229.16;;;14.09;93.57
17362;BME280;8798;51.938;4.348;2023-11-19T10:27:06;101244.91;;;14.14;93.51
17362;BME280;8798;51.938;4.348;2023-11-19T10:29:37;101261.44;;;14.19;93.43
17362;BME280;8798;51.938;4.348;2023-11-19T10:32:05;101276.00;;;14.26;93.70
17362;BME280;8798;51.938;4.348;2023-11-19T10:34:52;101278.69;;;14.26;93.55
17362;BME280;8798;51.938;4.348;2023-11-19T10:37:29;101250.34;;;14.22;93.66
17362;BME280;8798;51.938;4.348;2023-11-19T10:39:58;101250.34;;;14.22;93.60
17362;BME280;8798;51.938;4.348;2023-11-19T10:42:27;101243.22;;;14.21;93.60
17362;BME280;8798;51.938;4.348;2023-11-19T10:44:56;101238.66;;;14.22;93.50
17362;BME280;8798;51.938;4.348;2023-11-19T10:47:24;101233.09;;;14.23;93.68
17362;BME280;8798;51.938;4.348;2023-11-19T10:49:58;101247.97;;;14.27;93.20
17362;BME280;8798;51.938;4.348;2023-11-19T10:52:27;101253.88;;;14.31;93.22
17362;BME280;8798;51.938;4.348;2023-11-19T10:54:56;101293.59;;;14.38;93.66
17362;BME280;8798;51.938;4.348;2023-11-19T10:57:30;101329.44;;;14.49;93.52
17362;BME280;8798;51.938;4.348;2023-11-19T11:00:02;101361.09;;;14.56;93.43
17362;BME280;8798;51.938;4.348;2023-11-19T11:02:34;101402.03;;;14.70;93.41
17362;BME280;8798;51.938;4.348;2023-11-19T11:05:05;101442.28;;;14.81;93.32
17362;BME280;8798;51.938;4.348;2023-11-19T11:07:33;101466.81;;;14.88;93.35
17362;BME280;8798;51.938;4.348;2023-11-19T11:10:07;101480.00;;;14.91;93.19
17362;BME280;8798;51.938;4.348;2023-11-19T11:12:37;101472.56;;;14.93;93.44
17362;BME280;8798;51.938;4.348;2023-11-19T11:15:11;101459.22;;;14.91;93.26
17362;BME280;8798;51.938;4.348;2023-11-19T11:17:41;101424.56;;;14.87;93.10
17362;BME280;8798;51.938;4.348;2023-11-19T11:20:10;101432.34;;;14.90;93.14
17362;BME280;8798;51.938;4.348;2023-11-19T11:22:46;101434.69;;;14.93;93.34
17362;BME280;8798;51.938;4.348;2023-11-19T11:25:28;101437.94;;;14.96;93.29
17362;BME280;8798;51.938;4.348;2023-11-19T11:28:19;101443.84;;;15.00;93.13
17362;BME280;8798;51.938;4.348;2023-11-19T11:31:03;101433.19;;;14.98;93.11
17362;BME280;8798;51.938;4.348;2023-11-19T11:33:45;101405.63;;;14.95;92.92
17362;BME280;8798;51.938;4.348;2023-11-19T11:36:25;101371.28;;;14.87;93.09
17362;BME280;8798;51.938;4.348;2023-11-19T11:38:54;101361.31;;;14.88;93.17
17362;BME280;8798;51.938;4.348;2023-11-19T11:41:26;101382.31;;;14.94;92.94
17362;BME280;8798;51.938;4.348;2023-11-19T11:43:56;101404.97;;;15.01;92.88
17362;BME280;8798;51.938;4.348;2023-11-19T11:46:56;101410.03;;;15.04;92.99
17362;BME280;8798;51.938;4.348;2023-11-19T11:49:28;101411.38;;;15.08;92.93
17362;BME280;8798;51.938;4.348;2023-11-19T11:52:03;101420.03;;;15.12;93.06
17362;BME280;8798;51.938;4.348;2023-11-19T11:54:30;101416.28;;;15.13;93.05
17362;BME280;8798;51.938;4.348;2023-11-19T11:57:09;101411.56;;;15.15;92.83
17362;BME280;8798;51.938;4.348;2023-11-19T11:59:45;101437.09;;;15.20;92.82
17362;BME280;8798;51.938;4.348;2023-11-19T12:02:16;101448.28;;;15.25;92.84
17362;BME280;8798;51.938;4.348;2023-11-19T12:04:48;101430.50;;;15.23;92.95
17362;BME280;8798;51.938;4.348;2023-11-19T12:07:18;101410.03;;;15.20;92.76
17362;BME280;8798;51.938;4.348;2023-11-19T12:09:52;101404.47;;;15.22;92.74
17362;BME280;8798;51.938;4.348;2023-11-19T12:12:23;101396.34;;;15.22;92.75
17362;BME280;8798;51.938;4.348;2023-11-19T12:15:04;101354.72;;;15.15;92.80
17362;BME280;8798;51.938;4.348;2023-11-19T12:17:46;101335.31;;;15.11;92.64
17362;BME280;8798;51.938;4.348;2023-11-19T12:20:19;101309.75;;;15.05;92.65
17362;BME280;8798;51.938;4.348;2023-11-19T12:22:50;101280.16;;;15.04;92.27
17362;BME280;8798;51.938;4.348;2023-11-19T12:25:19;101265.13;;;15.01;92.48
17362;BME280;8798;51.938;4.348;2023-11-19T12:27:49;101252.94;;;14.97;92.19
17362;BME280;8798;51.938;4.348;2023-11-19T12:30:21;101231.63;;;14.94;92.49
17362;BME280;8798;51.938;4.348;2023-11-19T12:32:51;101199.69;;;14.90;92.43
17362;BME280;8798;51.938;4.348;2023-11-19T12:35:20;101186.31;;;14.88;92.36
17362;BME280;8798;51.938;4.348;2023-11-19T12:37:49;101180.06;;;14.88;92.39
17362;BME280;8798;51.938;4.348;2023-11-19T12:40:19;101172.16;;;14.86;92.33
17362;BME280;8798;51.938;4.348;2023-11-19T12:42:47;101175.50;;;14.88;92.32
17362;BME280;8798;51.938;4.348;2023-11-19T12:45:16;101193.94;;;14.93;92.47
17362;BME280;8798;51.938;4.348;2023-11-19T12:47:46;101192.94;;;14.94;92.22
17362;BME280;8798;51.938;4.348;2023-11-19T12:50:17;101167.22;;;14.90;92.19
17362;BME280;8798;51.938;4.348;2023-11-19T12:52:55;101127.53;;;14.82;92.02
17362;BME280;8798;51.938;4.348;2023-11-19T12:55:27;101112.66;;;14.78;92.30
17362;BME280;8798;51.938;4.348;2023-11-19T12:57:57;101078.19;;;14.72;92.12
17362;BME280;8798;51.938;4.348;2023-11-19T13:00:27;101056.88;;;14.69;92.12
17362;BME280;8798;51.938;4.348;2023-11-19T13:02:56;101045.22;;;14.68;92.09
17362;BME280;8798;51.938;4.348;2023-11-19T13:05:27;101047.09;;;14.68;92.04
17362;BME280;8798;51.938;4.348;2023-11-19T13:08:01;101088.50;;;14.76;92.02
17362;BME280;8798;51.938;4.348;2023-11-19T13:10:30;101118.06;;;14.86;91.91
17362;BME280;8798;51.938;4.348;2023-11-19T13:13:02;101146.06;;;14.93;91.99
17362;BME280;8798;51.938;4.348;2023-11-19T13:15:30;101169.75;;;14.99;91.88
17362;BME280;8798;51.938;4.348;2023-11-19T13:17:59;101177.34;;;15.04;92.04
17362;BME280;8798;51.938;4.348;2023-11-19T13:20:28;101182.56;;;15.05;91.98
17362;BME280;8798;51.938;4.348;2023-11-19T13:22:57;101176.31;;;15.05;91.88
17362;BME280;8798;51.938;4.348;2023-11-19T13:25:25;101161.28;;;15.02;92.03
17362;BME280;8798;51.938;4.348;2023-11-19T13:27:54;101129.69;;;14.95;91.89
17362;BME280;8798;51.938;4.348;2023-11-19T13:30:23;101114.81;;;14.91;91.65
17362;BME280;8798;51.938;4.348;2023-11-19T13:32:55;101064.13;;;14.84;92.02